Colonial Heights, Tennessee
Current Conditions -  °F | °C
As of 10:53 AM on Sunday 23 Nov 2014 (Local Time) from KTRI Reporting Station
Overcast Overcast  
Wind Chill: 48°   Ceiling: 10000
Heat Index: 48°   Visibility: 10mi
Dew Point: 40°   Wind: 0mph
Humidity: 74%   Direction: NA
Pressure: 30.04"   Gusts: NA
Location:  36.4621°N, 82.5069°W
Report Text: KTRI 231553Z 00000KT 10SM FEW080 OVC100 09/04 A3004 RMK AO2 SLP164 T00890044
Loading
Personal Weather Stations






























Interactive Weather Map New forecast layout! Learn more

10-Day Weather Forecast

Advertisements
Track Severe Weather on mobile